createdAt,value
2023-01-22T00:02:44.619Z,75.30
2023-01-22T00:05:13.371Z,75.00
2023-01-22T00:08:18.392Z,75.30
2023-01-22T00:14:15.071Z,75.80
2023-01-22T00:17:02.569Z,74.70
2023-01-22T00:19:31.330Z,75.80
2023-01-22T00:25:05.603Z,75.30
2023-01-22T00:27:34.330Z,75.60
2023-01-22T00:30:39.963Z,75.50
2023-01-22T00:36:15.908Z,76.30
2023-01-22T00:39:20.778Z,75.70
2023-01-22T00:41:50.002Z,75.50
2023-01-22T00:44:36.112Z,75.70
2023-01-22T00:47:04.913Z,76.20
2023-01-22T00:49:54.170Z,76.70
2023-01-22T00:52:40.076Z,76.40
2023-01-22T00:55:09.855Z,76.70
2023-01-22T00:57:38.610Z,76.90
2023-01-22T01:00:08.736Z,77.10
2023-01-22T01:03:13.537Z,76.50
2023-01-22T01:05:44.040Z,76.50
2023-01-22T01:08:12.812Z,77.00
2023-01-22T01:11:19.080Z,76.80
2023-01-22T01:14:06.230Z,76.20
2023-01-22T01:19:40.373Z,76.50
2023-01-22T01:22:10.558Z,76.20
2023-01-22T01:24:39.331Z,76.20
2023-01-22T01:27:46.340Z,76.70
2023-01-22T01:30:33.348Z,76.10
2023-01-22T01:33:20.808Z,75.80
2023-01-22T01:36:46.216Z,75.10
2023-01-22T01:39:15.550Z,74.60
2023-01-22T01:42:01.727Z,74.80
2023-01-22T01:44:33.550Z,74.50
2023-01-22T01:47:22.592Z,74.50
2023-01-22T01:49:54.250Z,73.80
2023-01-22T01:52:23.090Z,74.50
2023-01-22T01:54:59.332Z,74.30
2023-01-22T01:57:50.400Z,74.50
2023-01-22T02:00:22.450Z,74.30
2023-01-22T02:03:09.821Z,74.50
2023-01-22T02:08:26.517Z,74.70
2023-01-22T02:10:57.189Z,74.30
2023-01-22T02:14:03.812Z,74.10
2023-01-22T02:17:19.440Z,74.30
2023-01-22T02:19:52.411Z,74.10
2023-01-22T02:22:58.449Z,73.80
2023-01-22T02:25:27.741Z,74.50
2023-01-22T02:27:56.509Z,74.50
2023-01-22T02:30:42.777Z,74.40
2023-01-22T02:33:47.440Z,74.10
2023-01-22T02:36:17.650Z,74.70
2023-01-22T02:38:47.850Z,74.80
2023-01-22T02:41:18.460Z,74.80
2023-01-22T02:43:47.429Z,75.00
2023-01-22T02:46:16.889Z,75.30
2023-01-22T02:48:45.890Z,76.10
2023-01-22T02:51:36.549Z,75.70
2023-01-22T02:54:08.170Z,75.20
2023-01-22T02:57:12.881Z,75.60
2023-01-22T03:00:00.912Z,76.40
2023-01-22T03:02:29.890Z,77.10
2023-01-22T03:05:03.609Z,76.80
2023-01-22T03:07:42.493Z,76.60
2023-01-22T03:10:15.869Z,77.20
2023-01-22T03:13:03.570Z,76.60
2023-01-22T03:15:49.772Z,76.30
2023-01-22T03:18:37.258Z,75.90
2023-01-22T03:21:16.163Z,75.70
2023-01-22T03:24:04.170Z,75.50
2023-01-22T03:26:34.481Z,75.80
2023-01-22T03:29:04.540Z,75.10
2023-01-22T03:31:33.407Z,74.80
2023-01-22T03:34:02.750Z,75.50
2023-01-22T03:36:31.697Z,76.00
2023-01-22T03:39:03.633Z,76.30
2023-01-22T03:41:33.865Z,75.90
2023-01-22T03:44:03.750Z,75.90
2023-01-22T03:46:36.404Z,76.00
2023-01-22T03:49:07.679Z,76.00
2023-01-22T03:51:55.270Z,76.10
2023-01-22T03:54:26.537Z,76.30
2023-01-22T03:57:19.318Z,75.70
2023-01-22T04:00:08.729Z,75.90
2023-01-22T04:02:58.456Z,75.40
2023-01-22T04:05:33.013Z,75.90
2023-01-22T04:08:21.012Z,76.50
2023-01-22T04:11:11.290Z,76.60
2023-01-22T04:13:43.433Z,76.40
2023-01-22T04:16:13.978Z,76.20
2023-01-22T04:19:15.312Z,75.60
2023-01-22T04:22:31.831Z,75.40
2023-01-22T04:25:00.677Z,75.00
2023-01-22T04:27:48.438Z,74.50
2023-01-22T04:30:21.612Z,74.40
2023-01-22T04:32:57.078Z,74.20
2023-01-22T04:35:33.510Z,74.50
2023-01-22T04:38:04.639Z,74.20
2023-01-22T04:40:34.147Z,73.60
2023-01-22T04:43:03.430Z,73.90
2023-01-22T04:45:34.058Z,73.60
2023-01-22T04:48:03.213Z,73.70
2023-01-22T04:53:38.292Z,73.20
2023-01-22T04:56:26.581Z,73.00
2023-01-22T04:58:55.399Z,73.20
2023-01-22T05:01:25.851Z,73.50
2023-01-22T05:03:54.763Z,73.90
2023-01-22T05:06:25.551Z,73.80
2023-01-22T05:09:11.921Z,73.80
2023-01-22T05:11:52.860Z,73.70
2023-01-22T05:14:24.761Z,74.30
2023-01-22T05:17:12.129Z,74.30
2023-01-22T05:19:59.771Z,73.50
2023-01-22T05:22:28.668Z,74.40
2023-01-22T05:25:15.201Z,74.40
2023-01-22T05:28:01.613Z,73.70
2023-01-22T05:31:20.117Z,73.90
2023-01-22T05:34:09.250Z,74.50
2023-01-22T05:36:40.765Z,74.60
2023-01-22T05:39:16.730Z,74.80
2023-01-22T05:41:46.029Z,74.70
2023-01-22T05:44:16.300Z,74.40
2023-01-22T05:47:08.271Z,74.00
2023-01-22T05:49:53.750Z,74.10
2023-01-22T05:52:42.278Z,74.00
2023-01-22T05:55:11.342Z,73.80
2023-01-22T05:58:06.384Z,74.10
2023-01-22T06:00:36.923Z,74.50
2023-01-22T06:03:09.787Z,74.40
2023-01-22T06:05:48.491Z,73.80
2023-01-22T06:08:36.100Z,74.20
2023-01-22T06:11:23.416Z,73.10
2023-01-22T06:13:53.353Z,74.60
2023-01-22T06:16:24.043Z,74.00
2023-01-22T06:19:12.793Z,73.40
2023-01-22T06:22:05.269Z,73.10
2023-01-22T06:24:41.944Z,73.20
2023-01-22T06:27:12.609Z,73.40
2023-01-22T06:29:51.601Z,73.80
2023-01-22T06:32:20.471Z,74.40
2023-01-22T06:35:25.871Z,74.30
2023-01-22T06:38:13.743Z,74.30
2023-01-22T06:40:43.920Z,74.10
2023-01-22T06:43:31.725Z,74.30
2023-01-22T06:46:05.103Z,74.00
2023-01-22T06:48:50.670Z,73.90
2023-01-22T06:51:19.554Z,74.30
2023-01-22T06:53:49.924Z,74.40
2023-01-22T06:56:21.045Z,74.00
2023-01-22T06:59:07.371Z,74.10
2023-01-22T07:01:37.308Z,74.20
2023-01-22T07:04:23.480Z,74.30
2023-01-22T07:06:52.161Z,74.40
2023-01-22T07:09:40.761Z,73.60
2023-01-22T07:12:27.944Z,72.80
2023-01-22T07:15:15.001Z,73.00
2023-01-22T07:17:50.581Z,73.30
2023-01-22T07:20:56.741Z,73.90
2023-01-22T07:23:42.662Z,73.30
2023-01-22T07:26:31.714Z,74.10
2023-01-22T07:29:00.435Z,72.90
2023-01-22T07:31:49.654Z,73.70
2023-01-22T07:34:37.620Z,73.90
2023-01-22T07:37:07.273Z,73.60
2023-01-22T07:39:54.317Z,73.70
2023-01-22T07:42:24.543Z,73.70
2023-01-22T07:45:10.824Z,73.30
2023-01-22T07:48:00.571Z,72.50
2023-01-22T07:50:30.916Z,72.90
2023-01-22T07:53:00.829Z,72.00
2023-01-22T07:55:31.433Z,71.60
2023-01-22T07:58:03.843Z,71.20
2023-01-22T08:01:09.099Z,71.00
2023-01-22T08:03:55.416Z,71.30
2023-01-22T08:06:24.200Z,71.10
2023-01-22T08:09:11.767Z,70.90
2023-01-22T08:14:29.935Z,71.10
2023-01-22T08:17:34.589Z,71.10
2023-01-22T08:20:03.633Z,70.90
2023-01-22T08:23:08.114Z,71.00
2023-01-22T08:25:36.904Z,70.80
2023-01-22T08:28:24.031Z,71.00
2023-01-22T08:30:57.828Z,70.90
2023-01-22T08:33:44.088Z,70.80
2023-01-22T08:36:12.795Z,71.30
2023-01-22T08:38:58.834Z,71.30
2023-01-22T08:41:27.603Z,71.00
2023-01-22T08:43:56.344Z,71.20
2023-01-22T08:46:26.609Z,71.60
2023-01-22T08:49:12.804Z,71.60
2023-01-22T08:51:43.340Z,71.70
2023-01-22T08:54:29.283Z,71.90
2023-01-22T09:00:00.756Z,71.20
2023-01-22T09:02:31.786Z,71.20
2023-01-22T09:05:00.690Z,71.40
2023-01-22T09:07:29.487Z,71.40
2023-01-22T09:13:40.381Z,71.20
2023-01-22T09:16:11.075Z,71.50
2023-01-22T09:18:41.578Z,71.00
2023-01-22T09:21:10.220Z,71.80
2023-01-22T09:23:38.953Z,71.10
2023-01-22T09:26:07.820Z,71.20
2023-01-22T09:28:36.561Z,71.20
2023-01-22T09:31:05.734Z,71.20
2023-01-22T09:33:34.686Z,70.60
2023-01-22T09:36:13.092Z,70.10
2023-01-22T09:39:00.590Z,70.90
2023-01-22T09:41:34.249Z,69.30
2023-01-22T09:46:57.763Z,70.40
2023-01-22T09:49:30.748Z,71.40
2023-01-22T09:52:05.186Z,71.00
2023-01-22T09:54:52.664Z,70.90
2023-01-22T09:57:31.579Z,71.60
2023-01-22T10:00:20.866Z,70.80
2023-01-22T10:03:30.169Z,71.20
2023-01-22T10:06:02.289Z,71.40
2023-01-22T10:08:52.683Z,72.00
2023-01-22T10:11:21.794Z,71.70
2023-01-22T10:13:55.402Z,70.90
2023-01-22T10:16:41.493Z,71.20
2023-01-22T10:19:20.982Z,71.30
2023-01-22T10:21:53.569Z,71.40
2023-01-22T10:24:23.851Z,71.00
2023-01-22T10:26:55.041Z,70.30
2023-01-22T10:29:26.738Z,70.60
2023-01-22T10:32:24.053Z,70.50
2023-01-22T10:35:05.194Z,70.30
2023-01-22T10:37:56.121Z,69.60
2023-01-22T10:40:30.989Z,69.60
2023-01-22T10:43:30.281Z,69.50
2023-01-22T10:46:06.358Z,69.60
2023-01-22T10:51:27.768Z,70.40
2023-01-22T10:53:58.962Z,70.50
2023-01-22T10:56:50.079Z,70.40
2023-01-22T10:59:26.103Z,70.30
2023-01-22T11:01:59.809Z,70.60
2023-01-22T11:04:32.038Z,71.30
2023-01-22T11:07:07.191Z,70.90
2023-01-22T11:09:43.138Z,70.90
2023-01-22T11:12:17.967Z,71.00
2023-01-22T11:14:49.291Z,70.80
2023-01-22T11:20:22.298Z,69.00
2023-01-22T11:23:01.882Z,68.50
2023-01-22T11:25:39.967Z,67.70
2023-01-22T11:28:25.181Z,67.20
2023-01-22T11:31:08.183Z,67.10
2023-01-22T11:34:06.299Z,67.40
2023-01-22T11:36:39.990Z,67.00
2023-01-22T11:39:19.951Z,67.10
2023-01-22T11:42:02.051Z,67.40
2023-01-22T11:44:57.093Z,67.10
2023-01-22T11:48:13.588Z,67.70
2023-01-22T11:51:04.206Z,67.40
2023-01-22T11:53:49.681Z,67.30
2023-01-22T11:56:29.513Z,66.40
2023-01-22T11:59:04.585Z,66.10
2023-01-22T12:01:48.890Z,65.80
2023-01-22T12:04:53.536Z,66.00
2023-01-22T12:07:47.112Z,66.20
2023-01-22T12:10:48.040Z,65.20
2023-01-22T12:13:45.144Z,65.40
2023-01-22T12:16:22.688Z,65.40
2023-01-22T12:19:14.638Z,67.10
2023-01-22T12:21:54.592Z,67.10
2023-01-22T12:24:28.098Z,65.80
2023-01-22T12:27:03.003Z,65.90
2023-01-22T12:29:36.122Z,65.00
2023-01-22T12:32:11.487Z,65.30
2023-01-22T12:34:49.660Z,65.90
2023-01-22T12:41:26.321Z,65.90
2023-01-22T12:44:29.270Z,66.90
2023-01-22T12:50:36.654Z,71.50
2023-01-22T12:53:07.531Z,74.30
2023-01-22T12:55:55.779Z,75.60
2023-01-22T12:58:27.352Z,75.60
2023-01-22T13:01:03.759Z,76.50
2023-01-22T13:03:33.627Z,76.30
2023-01-22T13:06:05.846Z,76.90
2023-01-22T13:08:41.315Z,76.20
2023-01-22T13:11:16.327Z,75.50
2023-01-22T13:13:55.192Z,75.50
2023-01-22T13:16:32.495Z,76.00
2023-01-22T13:22:07.609Z,75.90
2023-01-22T13:24:36.790Z,76.00
2023-01-22T13:27:44.540Z,75.90
2023-01-22T13:30:18.858Z,75.80
2023-01-22T13:32:48.141Z,76.00
2023-01-22T13:35:19.980Z,75.70
2023-01-22T13:38:10.278Z,75.40
2023-01-22T13:40:50.754Z,75.90
2023-01-22T13:43:39.290Z,75.80
2023-01-22T13:46:28.823Z,73.90
2023-01-22T13:49:25.125Z,74.10
2023-01-22T13:51:58.734Z,72.40
2023-01-22T13:54:35.579Z,70.50
2023-01-22T13:57:21.860Z,70.10
2023-01-22T13:59:55.234Z,68.40
2023-01-22T14:02:27.022Z,67.70
2023-01-22T14:05:14.480Z,67.80
2023-01-22T14:07:43.380Z,67.40
2023-01-22T14:10:38.736Z,67.70
2023-01-22T14:13:26.033Z,68.20
2023-01-22T14:16:07.002Z,67.20
2023-01-22T14:18:35.781Z,65.60
2023-01-22T14:21:05.256Z,65.10
2023-01-22T14:23:34.169Z,65.60
2023-01-22T14:26:06.879Z,65.30
2023-01-22T14:28:37.279Z,66.20
2023-01-22T14:31:06.459Z,65.80
2023-01-22T14:33:53.234Z,65.60
2023-01-22T14:36:40.732Z,66.30
2023-01-22T14:39:28.575Z,68.50
2023-01-22T14:45:03.885Z,69.50
2023-01-22T14:47:36.975Z,70.90
2023-01-22T14:50:06.973Z,71.30
2023-01-22T14:52:37.613Z,71.70
2023-01-22T14:55:07.242Z,72.30
2023-01-22T14:57:37.656Z,72.10
2023-01-22T15:00:08.631Z,71.90
2023-01-22T15:05:45.289Z,72.80
2023-01-22T15:08:14.063Z,71.90
2023-01-22T15:10:42.854Z,72.20
2023-01-22T15:13:13.051Z,72.80
2023-01-22T15:15:59.135Z,73.10
2023-01-22T15:18:46.763Z,73.00
2023-01-22T15:21:34.924Z,73.20
2023-01-22T15:24:24.354Z,73.30
2023-01-22T15:27:18.447Z,72.50
2023-01-22T15:29:50.127Z,73.20
2023-01-22T15:32:18.913Z,73.00
2023-01-22T15:35:07.110Z,73.40
2023-01-22T15:37:36.181Z,73.50
2023-01-22T15:40:22.789Z,73.20
2023-01-22T15:43:10.132Z,73.30
2023-01-22T15:45:40.439Z,73.40
2023-01-22T15:48:09.461Z,73.40
2023-01-22T15:50:55.799Z,73.70
2023-01-22T15:53:42.641Z,73.20
2023-01-22T15:56:29.672Z,73.30
2023-01-22T15:59:17.121Z,73.50
2023-01-22T16:02:23.635Z,74.60
2023-01-22T16:05:09.839Z,74.70
2023-01-22T16:07:38.682Z,75.20
2023-01-22T16:10:08.022Z,75.90
2023-01-22T16:12:36.844Z,75.90
2023-01-22T16:15:24.001Z,76.40
2023-01-22T16:18:31.391Z,76.60
2023-01-22T16:21:02.941Z,76.40
2023-01-22T16:23:32.976Z,76.80
2023-01-22T16:26:20.399Z,76.40
2023-01-22T16:29:08.768Z,75.40
2023-01-22T16:31:38.239Z,76.30
2023-01-22T16:34:13.414Z,76.10
2023-01-22T16:39:29.667Z,76.90
2023-01-22T16:42:16.074Z,76.50
2023-01-22T16:44:47.523Z,77.00
2023-01-22T16:47:34.219Z,77.10
2023-01-22T16:50:05.139Z,78.00
2023-01-22T16:52:37.224Z,78.20
2023-01-22T16:55:07.816Z,78.80
2023-01-22T16:57:56.051Z,78.20
2023-01-22T17:01:00.976Z,78.10
2023-01-22T17:03:31.649Z,77.80
2023-01-22T17:06:20.580Z,78.00
2023-01-22T17:08:49.545Z,77.70
2023-01-22T17:11:18.995Z,78.30
2023-01-22T17:13:48.665Z,78.10
2023-01-22T17:16:35.958Z,78.10
2023-01-22T17:22:13.377Z,78.70
2023-01-22T17:24:42.553Z,78.40
2023-01-22T17:30:05.825Z,79.00
2023-01-22T17:32:34.632Z,79.40
2023-01-22T17:35:03.575Z,79.30
2023-01-22T17:37:33.890Z,79.00
2023-01-22T17:40:22.682Z,79.20
2023-01-22T17:42:51.484Z,79.30
2023-01-22T17:45:40.883Z,80.20
2023-01-22T17:48:09.694Z,80.40
2023-01-22T17:50:38.503Z,80.30
2023-01-22T17:53:08.763Z,79.60
2023-01-22T17:55:40.047Z,80.20
2023-01-22T17:58:09.048Z,80.30
2023-01-22T18:00:55.409Z,80.40
2023-01-22T18:03:28.349Z,80.30
2023-01-22T18:06:15.632Z,79.90
2023-01-22T18:08:46.160Z,79.50
2023-01-22T18:11:33.790Z,80.60
2023-01-22T18:14:05.530Z,81.00
2023-01-22T18:16:55.273Z,81.40
2023-01-22T18:19:24.875Z,81.20
2023-01-22T18:21:54.026Z,81.50
2023-01-22T18:24:26.570Z,81.30
2023-01-22T18:27:12.688Z,81.60
2023-01-22T18:32:27.372Z,81.50
2023-01-22T18:35:13.490Z,81.90
2023-01-22T18:37:42.347Z,81.80
2023-01-22T18:40:14.380Z,81.80
2023-01-22T18:42:45.191Z,81.60
2023-01-22T18:45:14.834Z,81.50
2023-01-22T18:48:00.950Z,81.40
2023-01-22T18:50:29.809Z,81.40
2023-01-22T18:53:16.058Z,81.10
2023-01-22T18:56:03.948Z,81.70
2023-01-22T18:58:35.782Z,81.50
2023-01-22T19:01:11.877Z,82.20
2023-01-22T19:03:44.845Z,82.60
2023-01-22T19:06:32.971Z,82.80
2023-01-22T19:09:05.923Z,82.90
2023-01-22T19:11:37.888Z,83.20
2023-01-22T19:14:09.229Z,82.90
2023-01-22T19:16:39.311Z,83.20
2023-01-22T19:19:11.580Z,84.50
2023-01-22T19:22:01.138Z,84.80
2023-01-22T19:24:32.407Z,84.80
2023-01-22T19:27:02.754Z,84.40
2023-01-22T19:29:52.494Z,84.40
2023-01-22T19:32:27.742Z,84.30
2023-01-22T19:38:36.133Z,84.60
2023-01-22T19:41:40.748Z,84.00
2023-01-22T19:44:12.231Z,84.30
2023-01-22T19:46:42.580Z,84.20
2023-01-22T19:52:19.323Z,83.60
2023-01-22T19:54:50.686Z,83.20
2023-01-22T19:57:36.610Z,82.90
2023-01-22T20:00:25.301Z,82.50
2023-01-22T20:02:54.150Z,83.30
2023-01-22T20:05:41.713Z,83.10
2023-01-22T20:08:11.321Z,83.30
2023-01-22T20:10:40.100Z,82.50
2023-01-22T20:13:10.140Z,82.00
2023-01-22T20:15:43.555Z,82.00
2023-01-22T20:18:29.629Z,81.90
2023-01-22T20:21:02.976Z,82.10
2023-01-22T20:23:49.570Z,81.90
2023-01-22T20:26:20.513Z,81.60
2023-01-22T20:28:50.219Z,81.20
2023-01-22T20:31:59.354Z,81.50
2023-01-22T20:34:29.538Z,81.50
2023-01-22T20:36:58.390Z,81.40
2023-01-22T20:39:27.777Z,80.80
2023-01-22T20:42:14.054Z,80.80
2023-01-22T20:45:00.340Z,81.20
2023-01-22T20:50:20.660Z,80.80
2023-01-22T20:52:49.496Z,80.60
2023-01-22T20:58:05.814Z,80.60
2023-01-22T21:00:38.224Z,81.40
2023-01-22T21:03:08.600Z,82.20
2023-01-22T21:05:41.017Z,81.70
2023-01-22T21:08:28.302Z,81.70
2023-01-22T21:10:58.522Z,81.10
2023-01-22T21:13:30.477Z,81.30
2023-01-22T21:16:02.417Z,81.30
2023-01-22T21:18:32.710Z,81.20
2023-01-22T21:26:35.191Z,82.50
2023-01-22T21:29:10.125Z,82.00
2023-01-22T21:31:39.271Z,81.90
2023-01-22T21:34:10.786Z,81.90
2023-01-22T21:36:41.172Z,81.50
2023-01-22T21:39:14.517Z,81.40
2023-01-22T21:41:46.211Z,81.80
2023-01-22T21:44:34.614Z,81.80
2023-01-22T21:52:57.788Z,81.80
2023-01-22T21:55:26.590Z,81.50
2023-01-22T22:00:41.247Z,81.60
2023-01-22T22:03:10.642Z,81.50
2023-01-22T22:05:42.380Z,81.60
2023-01-22T22:08:11.471Z,80.60
2023-01-22T22:10:40.203Z,80.70
2023-01-22T22:13:09.030Z,81.30
2023-01-22T22:15:39.820Z,80.50
2023-01-22T22:18:08.613Z,82.00
2023-01-22T22:20:38.273Z,81.90
2023-01-22T22:26:13.596Z,81.10
2023-01-22T22:28:42.332Z,81.20
2023-01-22T22:31:13.119Z,80.60
2023-01-22T22:33:42.797Z,80.60
2023-01-22T22:36:12.966Z,80.80
2023-01-22T22:39:02.830Z,80.30
2023-01-22T22:41:50.208Z,80.70
2023-01-22T22:44:21.049Z,80.60
2023-01-22T22:46:49.793Z,81.00
2023-01-22T22:49:18.699Z,80.80
2023-01-22T22:51:48.293Z,79.80
2023-01-22T22:54:20.679Z,79.30
2023-01-22T22:56:51.400Z,79.30
2023-01-22T22:59:21.141Z,79.00
2023-01-22T23:02:07.812Z,79.70
2023-01-22T23:04:57.064Z,80.30
2023-01-22T23:07:45.345Z,79.20
2023-01-22T23:10:34.161Z,78.80
2023-01-22T23:15:50.828Z,78.60
2023-01-22T23:18:36.731Z,79.20
2023-01-22T23:21:23.479Z,79.20
2023-01-22T23:23:53.325Z,78.90
2023-01-22T23:26:28.236Z,79.10
2023-01-22T23:29:34.034Z,79.00
2023-01-22T23:32:02.825Z,78.70
2023-01-22T23:34:49.993Z,78.60
2023-01-22T23:37:18.940Z,79.40
2023-01-22T23:40:06.669Z,78.90
2023-01-22T23:42:55.582Z,78.90
2023-01-22T23:45:44.880Z,80.00
2023-01-22T23:48:13.662Z,79.10
2023-01-22T23:50:45.213Z,80.20
2023-01-22T23:53:14.099Z,80.30
2023-01-22T23:55:42.924Z,80.00
2023-01-22T23:58:31.445Z,79.70
